createdAt,value
2023-06-28T00:00:10.982Z,49.56
2023-06-28T00:02:38.357Z,49.70
2023-06-28T00:05:12.102Z,50.20
2023-06-28T00:07:38.949Z,50.03
2023-06-28T00:10:11.238Z,50.57
2023-06-28T00:12:37.790Z,50.50
2023-06-28T00:15:04.879Z,50.65
2023-06-28T00:17:31.431Z,50.84
2023-06-28T00:20:01.128Z,50.95
2023-06-28T00:22:32.039Z,50.90
2023-06-28T00:25:06.177Z,51.88
2023-06-28T00:27:33.590Z,50.99
2023-06-28T00:30:00.649Z,51.08
2023-06-28T00:32:29.962Z,51.47
2023-06-28T00:34:56.992Z,51.72
2023-06-28T00:37:24.919Z,52.29
2023-06-28T00:39:53.541Z,52.89
2023-06-28T00:42:20.262Z,52.92
2023-06-28T00:44:49.925Z,53.23
2023-06-28T00:47:17.084Z,53.42
2023-06-28T00:49:44.477Z,53.55
2023-06-28T00:52:12.451Z,53.51
2023-06-28T00:54:39.372Z,53.58
2023-06-28T00:57:06.297Z,53.89
2023-06-28T00:59:33.054Z,54.34
2023-06-28T01:01:59.860Z,53.82
2023-06-28T01:04:29.145Z,53.97
2023-06-28T01:07:01.351Z,53.99
2023-06-28T01:09:30.601Z,54.05
2023-06-28T01:11:58.238Z,54.29
2023-06-28T01:14:27.130Z,54.21
2023-06-28T01:16:57.258Z,54.14
2023-06-28T01:19:27.809Z,54.38
2023-06-28T01:22:06.836Z,54.41
2023-06-28T01:24:33.791Z,54.57
2023-06-28T01:27:00.827Z,54.27
2023-06-28T01:29:27.558Z,54.45
2023-06-28T01:31:55.949Z,54.60
2023-06-28T01:34:24.004Z,54.41
2023-06-28T01:36:52.359Z,54.22
2023-06-28T01:39:20.365Z,54.45
2023-06-28T01:41:47.983Z,54.55
2023-06-28T01:44:15.880Z,54.66
2023-06-28T01:46:44.335Z,54.15
2023-06-28T01:49:11.677Z,54.37
2023-06-28T01:51:42.692Z,54.17
2023-06-28T01:54:09.610Z,54.10
2023-06-28T01:56:39.069Z,53.64
2023-06-28T01:59:06.051Z,53.84
2023-06-28T02:01:32.899Z,54.22
2023-06-28T02:03:59.760Z,53.68
2023-06-28T02:06:28.143Z,53.88
2023-06-28T02:08:54.687Z,53.85
2023-06-28T02:11:21.405Z,54.03
2023-06-28T02:13:49.504Z,54.52
2023-06-28T02:16:16.572Z,54.90
2023-06-28T02:18:46.216Z,54.90
2023-06-28T02:21:13.289Z,55.18
2023-06-28T02:23:39.786Z,55.33
2023-06-28T02:26:06.647Z,55.72
2023-06-28T02:28:33.153Z,55.94
2023-06-28T02:31:00.098Z,55.73
2023-06-28T02:33:26.856Z,55.44
2023-06-28T02:35:54.868Z,55.92
2023-06-28T02:38:21.433Z,56.39
2023-06-28T02:40:48.132Z,56.20
2023-06-28T02:43:14.678Z,55.78
2023-06-28T02:45:43.249Z,56.37
2023-06-28T02:48:11.384Z,56.27
2023-06-28T02:50:38.934Z,56.52
2023-06-28T02:53:06.011Z,57.11
2023-06-28T02:55:32.559Z,57.70
2023-06-28T02:57:59.521Z,57.99
2023-06-28T03:00:29.595Z,58.29
2023-06-28T03:02:56.711Z,58.82
2023-06-28T03:05:23.596Z,59.14
2023-06-28T03:07:51.197Z,59.29
2023-06-28T03:10:17.977Z,59.71
2023-06-28T03:12:45.067Z,59.61
2023-06-28T03:15:11.809Z,59.79
2023-06-28T03:17:39.382Z,60.22
2023-06-28T03:20:07.348Z,60.73
2023-06-28T03:22:35.653Z,60.57
2023-06-28T03:25:03.669Z,60.40
2023-06-28T03:27:30.466Z,60.06
2023-06-28T03:29:57.439Z,59.49
2023-06-28T03:32:24.261Z,59.75
2023-06-28T03:34:51.120Z,60.53
2023-06-28T03:37:18.405Z,60.40
2023-06-28T03:39:44.929Z,60.49
2023-06-28T03:42:11.613Z,60.78
2023-06-28T03:44:39.679Z,60.91
2023-06-28T03:47:06.679Z,60.71
2023-06-28T03:49:34.572Z,60.38
2023-06-28T03:52:01.174Z,60.00
2023-06-28T03:54:27.715Z,60.16
2023-06-28T03:56:54.493Z,59.57
2023-06-28T03:59:21.208Z,59.17
2023-06-28T04:01:52.217Z,60.08
2023-06-28T04:04:19.264Z,59.91
2023-06-28T04:06:46.587Z,59.93
2023-06-28T04:09:19.046Z,59.82
2023-06-28T04:11:45.837Z,59.18
2023-06-28T04:14:12.452Z,59.89
2023-06-28T04:16:40.627Z,60.08
2023-06-28T04:19:07.209Z,60.33
2023-06-28T04:21:34.247Z,60.61
2023-06-28T04:24:05.544Z,60.99
2023-06-28T04:26:32.076Z,61.27
2023-06-28T04:29:00.358Z,60.83
2023-06-28T04:31:28.867Z,60.91
2023-06-28T04:33:58.956Z,60.92
2023-06-28T04:36:26.907Z,61.31
2023-06-28T04:38:56.022Z,61.54
2023-06-28T04:41:24.176Z,61.64
2023-06-28T04:43:55.957Z,61.86
2023-06-28T04:46:28.149Z,61.44
2023-06-28T04:48:56.912Z,61.98
2023-06-28T04:51:23.921Z,61.92
2023-06-28T04:53:51.459Z,62.43
2023-06-28T04:56:22.226Z,62.45
2023-06-28T04:58:49.410Z,62.74
2023-06-28T05:01:19.128Z,62.80
2023-06-28T05:03:50.181Z,63.30
2023-06-28T05:06:17.145Z,63.06
2023-06-28T05:08:44.023Z,63.07
2023-06-28T05:11:13.770Z,63.13
2023-06-28T05:13:41.973Z,64.08
2023-06-28T05:16:11.206Z,62.48
2023-06-28T05:18:37.924Z,63.60
2023-06-28T05:21:04.893Z,64.17
2023-06-28T05:23:31.515Z,65.03
2023-06-28T05:25:59.087Z,62.47
2023-06-28T05:28:27.162Z,62.51
2023-06-28T05:30:54.480Z,62.27
2023-06-28T05:33:21.564Z,63.64
2023-06-28T05:35:50.072Z,62.76
2023-06-28T05:38:22.801Z,63.99
2023-06-28T05:40:56.270Z,63.78
2023-06-28T05:43:23.773Z,63.28
2023-06-28T05:45:51.374Z,62.40
2023-06-28T05:48:18.081Z,63.07
2023-06-28T05:50:47.771Z,63.38
2023-06-28T05:53:14.729Z,63.67
2023-06-28T05:55:41.281Z,64.07
2023-06-28T05:58:08.500Z,63.35
2023-06-28T06:00:35.238Z,64.30
2023-06-28T06:03:02.866Z,63.73
2023-06-28T06:05:30.365Z,64.59
2023-06-28T06:07:59.277Z,64.71
2023-06-28T06:10:26.343Z,64.36
2023-06-28T06:12:54.347Z,64.50
2023-06-28T06:15:22.693Z,65.52
2023-06-28T06:17:54.086Z,66.19
2023-06-28T06:20:20.887Z,64.10
2023-06-28T06:22:47.480Z,64.50
2023-06-28T06:25:14.841Z,66.13
2023-06-28T06:27:42.004Z,64.56
2023-06-28T06:30:11.981Z,63.90
2023-06-28T06:32:39.323Z,62.64
2023-06-28T06:35:08.866Z,61.84
2023-06-28T06:37:35.355Z,62.08
2023-06-28T06:40:01.855Z,63.05
2023-06-28T06:42:28.703Z,64.05
2023-06-28T06:44:56.320Z,64.28
2023-06-28T06:47:23.002Z,64.12
2023-06-28T06:49:49.627Z,62.41
2023-06-28T06:52:16.342Z,63.99
2023-06-28T06:54:43.382Z,62.81
2023-06-28T06:57:10.111Z,61.37
2023-06-28T06:59:37.455Z,61.45
2023-06-28T07:02:04.554Z,62.41
2023-06-28T07:04:33.242Z,61.99
2023-06-28T07:07:03.948Z,61.66
2023-06-28T07:09:32.621Z,60.95
2023-06-28T07:11:59.803Z,60.48
2023-06-28T07:14:26.542Z,60.27
2023-06-28T07:16:53.288Z,60.96
2023-06-28T07:19:20.094Z,59.28
2023-06-28T07:21:46.762Z,58.67
2023-06-28T07:24:13.572Z,58.67
2023-06-28T07:26:41.207Z,55.59
2023-06-28T07:29:08.222Z,56.59
2023-06-28T07:31:34.846Z,55.43
2023-06-28T07:34:06.104Z,54.34
2023-06-28T07:36:34.092Z,56.08
2023-06-28T07:39:03.409Z,57.05
2023-06-28T07:41:30.159Z,57.06
2023-06-28T07:43:56.763Z,55.88
2023-06-28T07:46:23.421Z,55.48
2023-06-28T07:48:52.655Z,57.33
2023-06-28T07:51:19.762Z,55.29
2023-06-28T07:53:47.517Z,54.71
2023-06-28T07:56:14.871Z,53.07
2023-06-28T07:58:41.795Z,54.63
2023-06-28T08:01:10.067Z,53.36
2023-06-28T08:03:36.961Z,51.87
2023-06-28T08:06:11.079Z,51.29
2023-06-28T08:08:38.287Z,50.26
2023-06-28T08:11:04.832Z,49.44
2023-06-28T08:13:33.497Z,49.57
2023-06-28T08:16:00.060Z,49.59
2023-06-28T08:18:28.724Z,49.90
2023-06-28T08:20:55.232Z,48.86
2023-06-28T08:23:24.360Z,49.17
2023-06-28T08:25:52.265Z,49.42
2023-06-28T08:28:19.090Z,47.24
2023-06-28T08:30:46.014Z,47.87
2023-06-28T08:33:14.042Z,47.86
2023-06-28T08:35:40.905Z,48.38
2023-06-28T08:38:13.159Z,51.25
2023-06-28T08:40:40.350Z,53.06
2023-06-28T08:43:08.407Z,55.88
2023-06-28T08:45:35.418Z,56.73
2023-06-28T08:48:27.991Z,56.73
2023-06-28T08:50:59.278Z,55.61
2023-06-28T08:53:42.334Z,57.06
2023-06-28T08:56:08.881Z,57.86
2023-06-28T08:58:36.372Z,56.42
2023-06-28T09:01:03.584Z,55.75
2023-06-28T09:03:35.243Z,57.19
2023-06-28T09:06:03.185Z,56.51
2023-06-28T09:08:30.842Z,57.28
2023-06-28T09:10:59.791Z,56.50
2023-06-28T09:13:27.571Z,56.91
2023-06-28T09:15:56.332Z,57.23
2023-06-28T09:18:25.072Z,56.36
2023-06-28T09:20:54.146Z,56.37
2023-06-28T09:23:26.655Z,55.27
2023-06-28T09:25:55.907Z,55.52
2023-06-28T09:28:34.839Z,55.88
2023-06-28T09:31:02.544Z,54.64
2023-06-28T09:33:29.465Z,53.04
2023-06-28T09:35:57.428Z,52.06
2023-06-28T09:38:27.131Z,51.03
2023-06-28T09:40:59.813Z,51.28
2023-06-28T09:43:32.569Z,52.03
2023-06-28T09:46:11.784Z,52.66
2023-06-28T09:48:42.776Z,53.05
2023-06-28T09:51:12.579Z,52.76
2023-06-28T09:53:57.636Z,53.20
2023-06-28T09:56:40.519Z,53.34
2023-06-28T09:59:12.645Z,53.41
2023-06-28T10:01:44.117Z,52.91
2023-06-28T10:04:14.382Z,52.04
2023-06-28T10:06:42.434Z,51.85
2023-06-28T10:09:09.319Z,52.80
2023-06-28T10:11:43.608Z,53.16
2023-06-28T10:14:15.037Z,50.85
2023-06-28T10:16:43.135Z,49.92
2023-06-28T10:19:12.719Z,50.18
2023-06-28T10:21:42.145Z,49.27
2023-06-28T10:24:10.019Z,49.95
2023-06-28T10:26:37.407Z,48.56
2023-06-28T10:29:08.502Z,46.27
2023-06-28T10:31:37.554Z,46.00
2023-06-28T10:34:06.089Z,46.33
2023-06-28T10:36:34.391Z,44.76
2023-06-28T10:39:01.101Z,44.33
2023-06-28T10:41:31.753Z,45.75
2023-06-28T10:44:08.693Z,47.19
2023-06-28T10:46:38.070Z,47.24
2023-06-28T10:49:05.017Z,48.10
2023-06-28T10:51:34.245Z,47.39
2023-06-28T10:54:15.101Z,45.72
2023-06-28T10:56:48.200Z,45.45
2023-06-28T10:59:14.972Z,46.25
2023-06-28T11:01:51.058Z,46.00
2023-06-28T11:04:27.159Z,44.82
2023-06-28T11:07:20.017Z,44.75
2023-06-28T11:10:18.728Z,43.85
2023-06-28T11:12:49.231Z,44.96
2023-06-28T11:15:16.030Z,44.81
2023-06-28T11:17:43.534Z,44.54
2023-06-28T11:20:17.520Z,43.46
2023-06-28T11:22:54.869Z,43.67
2023-06-28T11:25:29.204Z,44.03
2023-06-28T11:27:59.374Z,44.78
2023-06-28T11:30:49.052Z,45.16
2023-06-28T11:33:23.240Z,45.82
2023-06-28T11:35:55.513Z,45.83
2023-06-28T11:38:23.174Z,45.38
2023-06-28T11:40:49.884Z,44.27
2023-06-28T11:43:21.993Z,44.40
2023-06-28T11:45:52.280Z,44.57
2023-06-28T11:48:19.291Z,45.20
2023-06-28T11:50:46.396Z,45.51
2023-06-28T11:53:13.467Z,44.96
2023-06-28T11:55:41.509Z,44.94
2023-06-28T11:58:08.623Z,44.90
2023-06-28T12:00:42.600Z,46.08
2023-06-28T12:03:09.201Z,46.46
2023-06-28T12:05:36.970Z,45.52
2023-06-28T12:08:04.095Z,45.77
2023-06-28T12:10:38.194Z,45.28
2023-06-28T12:13:05.059Z,45.34
2023-06-28T12:15:32.167Z,45.71
2023-06-28T12:17:58.923Z,44.83
2023-06-28T12:20:26.861Z,44.10
2023-06-28T12:22:57.966Z,43.82
2023-06-28T12:25:32.175Z,44.46
2023-06-28T12:28:06.026Z,45.47
2023-06-28T12:30:34.887Z,44.70
2023-06-28T12:33:10.022Z,44.16
2023-06-28T12:35:36.741Z,44.69
2023-06-28T12:38:05.108Z,44.25
2023-06-28T12:40:38.832Z,44.81
2023-06-28T12:43:11.884Z,42.90
2023-06-28T12:45:57.403Z,42.73
2023-06-28T12:48:27.493Z,42.11
2023-06-28T12:50:58.357Z,43.43
2023-06-28T12:53:25.174Z,42.29
2023-06-28T12:55:51.793Z,43.63
2023-06-28T12:58:20.344Z,43.36
2023-06-28T13:00:48.988Z,43.56
2023-06-28T13:03:15.702Z,41.57
2023-06-28T13:05:43.354Z,40.67
2023-06-28T13:08:15.002Z,40.21
2023-06-28T13:10:44.851Z,41.64
2023-06-28T13:13:11.685Z,40.96
2023-06-28T13:15:41.270Z,41.65
2023-06-28T13:18:08.732Z,40.79
2023-06-28T13:20:35.920Z,39.82
2023-06-28T13:23:03.597Z,39.60
2023-06-28T13:25:30.288Z,38.76
2023-06-28T13:27:57.124Z,40.19
2023-06-28T13:30:23.925Z,40.25
2023-06-28T13:32:51.629Z,41.08
2023-06-28T13:35:18.416Z,41.11
2023-06-28T13:37:46.309Z,41.13
2023-06-28T13:40:13.675Z,40.43
2023-06-28T13:42:40.467Z,39.56
2023-06-28T13:45:07.591Z,39.46
2023-06-28T13:47:34.860Z,39.92
2023-06-28T13:50:06.271Z,40.01
2023-06-28T13:52:33.673Z,40.15
2023-06-28T13:55:02.888Z,40.84
2023-06-28T13:57:30.509Z,40.09
2023-06-28T13:59:58.754Z,40.07
2023-06-28T14:02:27.527Z,40.22
2023-06-28T14:04:54.285Z,40.37
2023-06-28T14:07:23.624Z,40.56
2023-06-28T14:09:50.500Z,40.33
2023-06-28T14:12:17.109Z,40.95
2023-06-28T14:14:43.953Z,40.36
2023-06-28T14:17:10.746Z,40.36
2023-06-28T14:19:37.391Z,40.27
2023-06-28T14:22:04.354Z,39.49
2023-06-28T14:24:31.170Z,39.55
2023-06-28T14:26:57.761Z,39.06
2023-06-28T14:29:24.624Z,38.90
2023-06-28T14:31:51.414Z,40.58
2023-06-28T14:34:18.464Z,39.21
2023-06-28T14:36:45.278Z,39.56
2023-06-28T14:39:11.875Z,40.07
2023-06-28T14:41:38.915Z,40.15
2023-06-28T14:44:05.742Z,40.84
2023-06-28T14:46:32.344Z,40.66
2023-06-28T14:48:59.979Z,40.80
2023-06-28T14:51:26.510Z,40.21
2023-06-28T14:53:54.723Z,40.71
2023-06-28T14:56:21.725Z,41.40
2023-06-28T14:58:49.580Z,41.75
2023-06-28T15:01:17.643Z,41.01
2023-06-28T15:03:44.595Z,40.25
2023-06-28T15:06:12.572Z,41.15
2023-06-28T15:08:39.243Z,41.66
2023-06-28T15:11:06.026Z,42.02
2023-06-28T15:13:34.119Z,42.33
2023-06-28T15:16:01.932Z,42.65
2023-06-28T15:18:30.415Z,42.41
2023-06-28T15:20:58.400Z,42.71
2023-06-28T15:23:25.217Z,42.96
2023-06-28T15:25:52.066Z,42.30
2023-06-28T15:28:18.892Z,42.88
2023-06-28T15:30:48.130Z,42.02
2023-06-28T15:33:15.329Z,42.42
2023-06-28T15:35:47.219Z,42.65
2023-06-28T15:38:14.077Z,42.89
2023-06-28T15:40:40.807Z,42.48
2023-06-28T15:43:08.358Z,42.40
2023-06-28T15:45:35.156Z,42.88
2023-06-28T15:48:01.729Z,42.90
2023-06-28T15:50:28.653Z,42.71
2023-06-28T15:52:55.793Z,42.67
2023-06-28T15:55:26.023Z,43.02
2023-06-28T15:57:53.313Z,42.45
2023-06-28T16:00:21.410Z,42.69
2023-06-28T16:02:53.805Z,42.13
2023-06-28T16:05:22.227Z,41.59
2023-06-28T16:07:50.570Z,42.74
2023-06-28T16:10:17.671Z,42.03
2023-06-28T16:12:44.700Z,41.72
2023-06-28T16:15:12.742Z,43.71
2023-06-28T16:17:41.649Z,43.40
2023-06-28T16:20:09.386Z,43.41
2023-06-28T16:22:36.735Z,44.15
2023-06-28T16:25:04.361Z,43.98
2023-06-28T16:27:31.253Z,43.47
2023-06-28T16:29:58.521Z,44.43
2023-06-28T16:32:25.552Z,43.56
2023-06-28T16:34:52.404Z,43.82
2023-06-28T16:37:19.447Z,43.83
2023-06-28T16:39:46.326Z,44.28
2023-06-28T16:42:13.697Z,44.22
2023-06-28T16:44:40.487Z,44.10
2023-06-28T16:47:07.219Z,45.10
2023-06-28T16:49:34.015Z,45.42
2023-06-28T16:52:01.970Z,44.49
2023-06-28T16:54:28.985Z,44.06
2023-06-28T16:56:55.770Z,45.05
2023-06-28T16:59:22.511Z,44.79
2023-06-28T17:01:50.741Z,44.58
2023-06-28T17:04:17.504Z,44.73
2023-06-28T17:06:44.757Z,45.16
2023-06-28T17:09:12.378Z,45.39
2023-06-28T17:11:39.111Z,45.68
2023-06-28T17:14:08.227Z,45.22
2023-06-28T17:16:41.167Z,45.08
2023-06-28T17:19:07.822Z,45.80
2023-06-28T17:21:35.941Z,44.86
2023-06-28T17:24:02.731Z,45.25
2023-06-28T17:26:31.971Z,45.05
2023-06-28T17:29:00.837Z,45.07
2023-06-28T17:31:30.876Z,44.97
2023-06-28T17:33:57.454Z,45.38
2023-06-28T17:36:25.332Z,45.75
2023-06-28T17:38:51.926Z,45.70
2023-06-28T17:41:18.657Z,45.64
2023-06-28T17:43:47.369Z,46.08
2023-06-28T17:46:14.108Z,45.99
2023-06-28T17:48:40.727Z,46.45
2023-06-28T17:51:09.432Z,46.02
2023-06-28T17:53:37.755Z,46.10
2023-06-28T17:56:05.185Z,46.31
2023-06-28T17:58:32.353Z,46.25
2023-06-28T18:00:59.098Z,46.75
2023-06-28T18:03:26.143Z,46.51
2023-06-28T18:05:52.729Z,46.68
2023-06-28T18:08:21.191Z,47.06
2023-06-28T18:10:48.361Z,47.15
2023-06-28T18:13:15.170Z,47.42
2023-06-28T18:15:43.221Z,47.60
2023-06-28T18:18:10.240Z,47.94
2023-06-28T18:20:41.651Z,48.58
2023-06-28T18:23:08.393Z,48.86
2023-06-28T18:25:35.445Z,49.05
2023-06-28T18:28:01.955Z,49.21
2023-06-28T18:30:28.973Z,49.43
2023-06-28T18:32:55.887Z,49.87
2023-06-28T18:35:23.312Z,50.07
2023-06-28T18:37:50.178Z,50.00
2023-06-28T18:40:17.035Z,50.24
2023-06-28T18:42:45.293Z,50.27
2023-06-28T18:45:12.439Z,50.13
2023-06-28T18:47:39.112Z,50.15
2023-06-28T18:50:06.455Z,50.27
2023-06-28T18:52:33.003Z,50.24
2023-06-28T18:54:59.823Z,49.83
2023-06-28T18:57:27.388Z,49.83
2023-06-28T18:59:53.956Z,50.21
2023-06-28T19:02:21.248Z,50.17
2023-06-28T19:04:48.073Z,50.42
2023-06-28T19:07:16.065Z,50.14
2023-06-28T19:09:44.954Z,50.42
2023-06-28T19:12:14.245Z,50.39
2023-06-28T19:14:41.503Z,50.87
2023-06-28T19:17:09.023Z,51.13
2023-06-28T19:19:35.736Z,51.39
2023-06-28T19:22:02.310Z,51.75
2023-06-28T19:24:31.732Z,52.32
2023-06-28T19:26:59.176Z,52.43
2023-06-28T19:29:26.133Z,52.25
2023-06-28T19:31:54.999Z,52.61
2023-06-28T19:34:22.054Z,53.13
2023-06-28T19:36:51.649Z,53.94
2023-06-28T19:39:19.159Z,54.36
2023-06-28T19:41:45.936Z,54.76
2023-06-28T19:44:12.656Z,55.22
2023-06-28T19:46:40.444Z,55.78
2023-06-28T19:49:07.074Z,56.36
2023-06-28T19:51:35.559Z,56.86
2023-06-28T19:54:02.328Z,57.34
2023-06-28T19:56:30.384Z,57.75
2023-06-28T19:59:03.344Z,58.26
2023-06-28T20:01:34.626Z,58.83
2023-06-28T20:04:01.618Z,59.12
2023-06-28T20:06:34.625Z,59.30
2023-06-28T20:09:08.843Z,59.67
2023-06-28T20:11:38.505Z,60.15
2023-06-28T20:14:06.166Z,60.73
2023-06-28T20:16:35.570Z,61.16
2023-06-28T20:19:02.116Z,61.06
2023-06-28T20:21:29.791Z,61.38
2023-06-28T20:23:58.875Z,61.59
2023-06-28T20:26:25.585Z,61.78
2023-06-28T20:28:53.214Z,62.27
2023-06-28T20:31:19.891Z,62.28
2023-06-28T20:33:47.534Z,62.83
2023-06-28T20:36:14.443Z,63.40
2023-06-28T20:38:40.980Z,63.61
2023-06-28T20:41:08.352Z,64.67
2023-06-28T20:43:38.666Z,65.12
2023-06-28T20:46:06.191Z,65.28
2023-06-28T20:48:33.696Z,65.99
2023-06-28T20:51:03.932Z,66.27
2023-06-28T20:53:31.601Z,66.70
2023-06-28T20:55:58.354Z,67.13
2023-06-28T20:58:25.103Z,67.81
2023-06-28T21:00:51.674Z,67.77
2023-06-28T21:03:18.435Z,68.18
2023-06-28T21:05:49.288Z,69.69
2023-06-28T21:08:16.047Z,70.08
2023-06-28T21:10:42.876Z,69.98
2023-06-28T21:13:09.966Z,69.76
2023-06-28T21:15:36.512Z,70.12
2023-06-28T21:18:03.270Z,70.17
2023-06-28T21:20:30.084Z,70.44
2023-06-28T21:22:56.671Z,70.94
2023-06-28T21:25:23.255Z,71.30
2023-06-28T21:27:49.927Z,71.51
2023-06-28T21:30:19.258Z,72.21
2023-06-28T21:32:48.574Z,72.64
2023-06-28T21:35:16.731Z,73.48
2023-06-28T21:37:44.049Z,73.65
2023-06-28T21:40:11.383Z,73.43
2023-06-28T21:42:38.062Z,73.87
2023-06-28T21:45:04.916Z,74.17
2023-06-28T21:47:31.693Z,74.30
2023-06-28T21:49:58.513Z,75.47
2023-06-28T21:52:26.796Z,75.84
2023-06-28T21:54:54.123Z,76.42
2023-06-28T21:57:23.743Z,75.48
2023-06-28T21:59:50.414Z,75.66
2023-06-28T22:02:17.464Z,76.05
2023-06-28T22:04:44.480Z,76.39
2023-06-28T22:07:11.549Z,77.21
2023-06-28T22:09:38.380Z,77.94
2023-06-28T22:12:06.182Z,78.54
2023-06-28T22:14:33.157Z,79.37
2023-06-28T22:16:59.886Z,79.47
2023-06-28T22:19:27.890Z,80.08
2023-06-28T22:21:57.872Z,80.50
2023-06-28T22:24:24.434Z,80.65
2023-06-28T22:26:53.495Z,81.60
2023-06-28T22:29:20.261Z,81.54
2023-06-28T22:31:47.951Z,82.07
2023-06-28T22:34:18.269Z,82.34
2023-06-28T22:36:48.325Z,82.57
2023-06-28T22:39:15.412Z,83.36
2023-06-28T22:41:41.854Z,83.81
2023-06-28T22:44:12.055Z,85.09
2023-06-28T22:46:38.844Z,85.53
2023-06-28T22:49:05.711Z,85.71
2023-06-28T22:51:42.503Z,85.42
2023-06-28T22:54:14.685Z,85.67
2023-06-28T22:56:45.333Z,86.39
2023-06-28T22:59:13.097Z,86.38
2023-06-28T23:01:42.182Z,86.94
2023-06-28T23:04:08.820Z,87.64
2023-06-28T23:06:40.129Z,88.30
2023-06-28T23:09:06.936Z,89.06
2023-06-28T23:11:34.907Z,89.75
2023-06-28T23:14:02.278Z,90.81
2023-06-28T23:16:29.056Z,91.17
2023-06-28T23:18:56.347Z,91.59
2023-06-28T23:21:26.408Z,91.63
2023-06-28T23:23:55.873Z,91.65
2023-06-28T23:26:27.935Z,91.92
2023-06-28T23:28:55.565Z,92.38
2023-06-28T23:31:22.614Z,92.79
2023-06-28T23:33:49.653Z,92.57
2023-06-28T23:36:16.653Z,93.15
2023-06-28T23:38:43.329Z,93.08
2023-06-28T23:41:09.866Z,93.47
2023-06-28T23:43:37.188Z,93.84
2023-06-28T23:46:07.151Z,93.12
2023-06-28T23:48:36.347Z,92.86
2023-06-28T23:51:10.202Z,93.71
2023-06-28T23:53:39.873Z,94.07
2023-06-28T23:56:07.807Z,94.54
2023-06-28T23:58:37.493Z,95.87
